Time;durP1;ratioP1;P1;durP2;ratioP2;P2;SDS_P1;SDS_P2;PMS_P1;PMS_P2;Temp;Humidity;BMP_temperature;BMP_pressure;BME280_temperature;BME280_humidity;BME280_pressure;Samples;Min_cycle;Max_cycle;Signal;HPM_P1;HPM_P2
2021/12/05 00:24:32;;;;;;;9.33;6.93;;;4.30;99.90;;;;;;5015025;28;20176;-67
2021/12/05 00:27:05;;;;;;;12.67;7.57;;;4.30;99.90;;;;;;4997453;28;20561;-67
2021/12/05 00:29:44;;;;;;;18.67;8.30;;;4.30;99.90;;;;;;4997369;28;20202;-67
2021/12/05 00:32:19;;;;;;;9.20;7.20;;;4.30;99.90;;;;;;5014945;28;20230;-67
2021/12/05 00:48:55;;;;;;;16.13;9.13;;;4.20;99.90;;;;;;5015632;28;20237;-70
2021/12/05 00:54:31;;;;;;;12.27;7.60;;;4.20;99.90;;;;;;5015480;28;20255;-69
2021/12/05 01:13:31;;;;;;;13.00;7.70;;;4.00;99.90;;;;;;5014424;28;20199;-67
2021/12/05 01:15:28;;;;;;;16.13;7.80;;;4.00;99.90;;;;;;5000354;28;20729;-67
2021/12/05 01:18:16;;;;;;;15.77;7.83;;;4.00;99.90;;;;;;4996293;28;20203;-67
2021/12/05 01:20:45;;;;;;;17.17;8.40;;;4.00;99.90;;;;;;5014525;28;20507;-67
2021/12/05 01:23:24;;;;;;;13.37;7.67;;;3.90;99.90;;;;;;4996201;28;20195;-68
2021/12/05 01:43:04;;;;;;;17.53;8.10;;;3.80;99.90;;;;;;5014251;28;20234;-67
2021/12/05 01:58:25;;;;;;;21.03;8.73;;;3.90;99.90;;;;;;5013412;28;20195;-67
2021/12/05 02:43:25;;;;;;;14.33;7.43;;;4.20;99.90;;;;;;5013240;28;20191;-68
2021/12/05 02:45:52;;;;;;;16.60;7.07;;;4.20;99.90;;;;;;5013208;28;20637;-68
2021/12/05 02:48:21;;;;;;;13.63;6.93;;;4.20;99.90;;;;;;4995377;28;20183;-68
2021/12/05 02:50:47;;;;;;;16.63;7.20;;;4.20;99.90;;;;;;4995728;28;20266;-68
2021/12/05 02:53:28;;;;;;;14.63;6.37;;;4.20;99.90;;;;;;5013014;28;20200;-68
2021/12/05 02:55:55;;;;;;;10.13;6.27;;;4.20;99.90;;;;;;4995224;28;20171;-68
2021/12/05 02:58:45;;;;;;;10.23;6.43;;;4.30;99.90;;;;;;5013151;28;20180;-68
2021/12/05 03:01:20;;;;;;;13.30;6.70;;;4.30;99.90;;;;;;5012922;28;20195;-68
2021/12/05 03:03:47;;;;;;;9.90;5.90;;;4.30;99.90;;;;;;4995017;28;20712;-67
2021/12/05 03:06:21;;;;;;;11.10;6.63;;;4.30;99.90;;;;;;4995037;28;20184;-68
2021/12/05 03:08:50;;;;;;;15.63;6.67;;;4.30;99.90;;;;;;4995138;28;20183;-68
2021/12/05 03:11:16;;;;;;;10.07;6.83;;;4.30;99.90;;;;;;5012661;28;20246;-68
2021/12/05 03:13:42;;;;;;;10.90;6.00;;;4.30;99.90;;;;;;5012969;28;20207;-68
2021/12/05 03:16:13;;;;;;;9.20;6.40;;;4.30;99.90;;;;;;5013344;28;20287;-68
2021/12/05 03:18:39;;;;;;;8.40;6.70;;;4.30;99.90;;;;;;5012605;28;20172;-68
2021/12/05 03:21:07;;;;;;;13.07;6.47;;;4.30;99.90;;;;;;4996039;28;20545;-68
2021/12/05 03:23:35;;;;;;;12.07;6.70;;;4.30;99.90;;;;;;5016439;28;20576;-68
2021/12/05 03:26:01;;;;;;;12.43;6.97;;;4.30;99.90;;;;;;5016413;28;20665;-68
2021/12/05 03:28:27;;;;;;;9.17;6.13;;;4.30;99.90;;;;;;5016439;28;20199;-68
2021/12/05 03:30:52;;;;;;;12.73;6.83;;;4.30;99.90;;;;;;5016529;28;20555;-68
2021/12/05 03:33:18;;;;;;;13.17;6.67;;;4.30;99.90;;;;;;5016274;28;20238;-68
2021/12/05 03:35:44;;;;;;;12.87;6.30;;;4.30;99.90;;;;;;5015914;28;20210;-67
2021/12/05 03:38:10;;;;;;;11.70;6.47;;;4.30;99.90;;;;;;4998398;28;20639;-68
2021/12/05 03:40:38;;;;;;;13.70;7.17;;;4.30;99.90;;;;;;5015856;28;20631;-68
2021/12/05 03:43:08;;;;;;;10.73;6.53;;;4.30;99.90;;;;;;4998140;28;20211;-67
2021/12/05 03:45:38;;;;;;;9.33;6.10;;;4.30;99.90;;;;;;5015835;28;20284;-68
2021/12/05 03:48:05;;;;;;;14.13;6.57;;;4.30;99.90;;;;;;5016086;28;20164;-67
2021/12/05 03:50:31;;;;;;;9.73;6.10;;;4.30;99.90;;;;;;5015924;28;20615;-67
2021/12/05 03:52:57;;;;;;;11.90;6.30;;;4.30;99.90;;;;;;5015562;28;20200;-67
2021/12/05 03:55:22;;;;;;;11.33;6.17;;;4.30;99.90;;;;;;4998014;28;20190;-68
2021/12/05 03:57:49;;;;;;;11.13;6.30;;;4.30;99.90;;;;;;5015451;28;20235;-68
2021/12/05 04:00:25;;;;;;;12.53;6.50;;;4.30;99.90;;;;;;5015557;28;20278;-68
2021/12/05 04:02:53;;;;;;;10.60;6.73;;;4.30;99.90;;;;;;5015477;28;20207;-67
2021/12/05 04:05:19;;;;;;;8.10;6.40;;;4.30;99.90;;;;;;5015970;28;20631;-68
2021/12/05 04:07:45;;;;;;;10.20;6.67;;;4.30;99.90;;;;;;5015631;28;20594;-68
2021/12/05 04:10:12;;;;;;;7.23;6.23;;;4.30;99.90;;;;;;5015737;28;20583;-68
2021/12/05 04:12:38;;;;;;;9.77;6.40;;;4.30;99.90;;;;;;5015212;28;20207;-68
2021/12/05 04:15:06;;;;;;;8.43;6.80;;;4.30;99.90;;;;;;5015463;28;20259;-68
2021/12/05 04:17:31;;;;;;;10.90;6.40;;;4.30;99.90;;;;;;5015663;28;20215;-68
2021/12/05 04:19:57;;;;;;;12.60;7.00;;;4.30;99.90;;;;;;5015413;28;20507;-68
2021/12/05 04:22:23;;;;;;;7.63;6.90;;;4.30;99.90;;;;;;5015108;28;20199;-68
2021/12/05 04:24:49;;;;;;;7.03;5.83;;;4.20;99.90;;;;;;5015119;28;20184;-68
2021/12/05 04:27:16;;;;;;;9.70;6.40;;;4.20;99.90;;;;;;4997384;28;20183;-68
2021/12/05 04:29:42;;;;;;;9.47;6.03;;;4.20;99.90;;;;;;5015193;28;20195;-68
2021/12/05 04:32:08;;;;;;;11.93;5.97;;;4.10;99.90;;;;;;4996978;28;20208;-67
2021/12/05 04:34:34;;;;;;;9.47;6.00;;;4.10;99.90;;;;;;4996831;28;20191;-68
2021/12/05 04:37:00;;;;;;;7.43;6.53;;;4.10;99.90;;;;;;5014723;28;20211;-68
2021/12/05 04:39:26;;;;;;;7.20;6.23;;;4.10;99.90;;;;;;5015069;28;20630;-68
2021/12/05 04:41:53;;;;;;;8.60;5.37;;;4.00;99.90;;;;;;4997134;28;20693;-68
2021/12/05 04:44:20;;;;;;;12.47;6.20;;;4.00;99.90;;;;;;5014715;28;20712;-68
2021/12/05 04:46:46;;;;;;;6.83;5.80;;;4.00;99.90;;;;;;5015001;28;20191;-68
2021/12/05 04:49:12;;;;;;;13.63;6.30;;;4.00;99.90;;;;;;5015140;28;20190;-68
2021/12/05 04:51:41;;;;;;;10.90;5.80;;;4.00;99.90;;;;;;5014613;28;20200;-68
2021/12/05 04:54:11;;;;;;;6.13;5.63;;;4.00;99.90;;;;;;5014457;28;20214;-68
2021/12/05 04:56:37;;;;;;;16.00;6.13;;;4.00;99.90;;;;;;5014384;28;20207;-68
2021/12/05 04:59:10;;;;;;;16.27;6.20;;;4.10;99.90;;;;;;5014726;28;20176;-68
2021/12/05 05:01:36;;;;;;;6.03;5.43;;;4.00;99.90;;;;;;4996819;28;20246;-68
2021/12/05 05:04:06;;;;;;;8.10;5.93;;;4.00;99.90;;;;;;5014314;28;20195;-68
2021/12/05 05:06:32;;;;;;;8.00;5.63;;;4.00;99.90;;;;;;5014393;28;20202;-68
2021/12/05 05:08:58;;;;;;;11.77;6.20;;;4.00;99.90;;;;;;4996668;28;20226;-68
2021/12/05 05:11:25;;;;;;;13.77;6.00;;;4.00;99.90;;;;;;4996582;28;20200;-68
2021/12/05 05:13:52;;;;;;;10.43;5.50;;;4.00;99.90;;;;;;5014347;28;20211;-68
2021/12/05 05:16:20;;;;;;;12.33;6.07;;;4.10;99.90;;;;;;5014249;28;20212;-67
2021/12/05 05:18:51;;;;;;;16.40;6.83;;;4.10;99.90;;;;;;5014083;28;20250;-68
2021/12/05 05:50:15;;;;;;;10.07;5.80;;;4.20;99.90;;;;;;5014173;28;20211;-67
2021/12/05 05:52:41;;;;;;;6.70;5.23;;;4.10;99.90;;;;;;5013803;28;20200;-67
2021/12/05 05:55:07;;;;;;;5.93;5.43;;;4.10;99.90;;;;;;5014385;28;20257;-67
2021/12/05 05:57:42;;;;;;;8.60;5.53;;;4.10;99.90;;;;;;5013934;28;20319;-67
2021/12/05 06:00:27;;;;;;;8.27;5.47;;;4.10;99.90;;;;;;5013890;28;20156;-67
2021/12/05 06:05:37;;;;;;;8.93;5.70;;;4.10;99.90;;;;;;5013738;28;20206;-67
2021/12/05 06:08:03;;;;;;;6.80;5.23;;;4.10;99.90;;;;;;4995813;28;20568;-68
2021/12/05 06:10:30;;;;;;;8.80;5.07;;;4.00;99.90;;;;;;5013643;28;20182;-67
2021/12/05 06:12:58;;;;;;;8.20;6.00;;;4.00;99.90;;;;;;5013338;28;20203;-68
2021/12/05 06:15:26;;;;;;;6.13;5.20;;;4.00;99.90;;;;;;5013351;28;20179;-68
2021/12/05 06:17:54;;;;;;;12.37;5.70;;;4.00;99.90;;;;;;4996340;28;20227;-68
2021/12/05 06:20:25;;;;;;;6.40;5.57;;;4.00;99.90;;;;;;5013510;28;20179;-67
2021/12/05 06:22:51;;;;;;;6.83;5.50;;;4.00;99.90;;;;;;5013474;28;20665;-68
2021/12/05 06:25:22;;;;;;;6.93;5.40;;;3.90;99.90;;;;;;4995912;28;20191;-68
2021/12/05 06:27:49;;;;;;;5.00;4.70;;;3.90;99.90;;;;;;4995905;28;20259;-67
2021/12/05 06:30:22;;;;;;;6.97;5.30;;;3.90;99.90;;;;;;5013755;28;20203;-67
2021/12/05 06:38:28;;;;;;;7.80;5.80;;;3.80;99.90;;;;;;5013453;28;20211;-65
2021/12/05 06:46:18;;;;;;;8.77;5.87;;;3.80;99.90;;;;;;5013542;28;20611;-64
2021/12/05 06:48:45;;;;;;;8.10;5.80;;;3.80;99.90;;;;;;5013568;28;20152;-64
2021/12/05 06:51:13;;;;;;;6.47;5.30;;;3.70;99.90;;;;;;5013184;28;20255;-64
2021/12/05 06:53:39;;;;;;;8.77;5.90;;;3.70;99.90;;;;;;5013191;28;20172;-64
2021/12/05 06:56:06;;;;;;;8.10;5.30;;;3.70;99.90;;;;;;5014027;28;20175;-64
2021/12/05 06:58:32;;;;;;;7.00;5.10;;;3.70;99.90;;;;;;5017015;28;20179;-64
2021/12/05 07:01:01;;;;;;;6.50;5.47;;;3.70;99.90;;;;;;4999217;28;20179;-64
2021/12/05 07:03:26;;;;;;;8.20;5.50;;;3.70;99.90;;;;;;4999182;28;20196;-64
2021/12/05 07:08:32;;;;;;;9.53;5.70;;;3.70;99.90;;;;;;5016852;28;20160;-64
2021/12/05 07:19:19;;;;;;;5.47;5.07;;;3.60;99.90;;;;;;5016581;28;20172;-64
2021/12/05 07:21:55;;;;;;;8.53;5.33;;;3.60;99.90;;;;;;5016536;28;20753;-64
2021/12/05 07:41:09;;;;;;;9.67;5.47;;;3.80;99.90;;;;;;5016812;28;20163;-64
2021/12/05 07:43:35;;;;;;;6.77;5.30;;;3.80;99.90;;;;;;5016387;28;20626;-64
2021/12/05 07:46:06;;;;;;;7.80;5.17;;;3.90;99.90;;;;;;4998470;28;20187;-64
2021/12/05 07:48:34;;;;;;;5.70;5.10;;;3.90;99.90;;;;;;5016079;28;20656;-64
2021/12/05 07:51:15;;;;;;;5.83;5.20;;;3.90;99.90;;;;;;5015975;28;20175;-64
2021/12/05 07:54:02;;;;;;;8.27;5.33;;;3.90;99.90;;;;;;5016101;28;20294;-63
2021/12/05 08:15:41;;;;;;;8.40;5.17;;;4.00;99.90;;;;;;5015712;28;20219;-64
2021/12/05 08:18:07;;;;;;;8.47;5.67;;;4.00;99.90;;;;;;5016083;28;20191;-63
2021/12/05 08:20:35;;;;;;;7.30;6.07;;;4.10;99.90;;;;;;4997975;28;20650;-63
2021/12/05 08:23:03;;;;;;;7.13;5.17;;;4.10;99.90;;;;;;4997914;28;20204;-63
2021/12/05 08:25:31;;;;;;;7.13;5.30;;;4.10;99.90;;;;;;5016133;28;20203;-62
2021/12/05 08:28:19;;;;;;;7.77;5.30;;;4.10;99.90;;;;;;5015363;28;20554;-62
2021/12/05 08:31:08;;;;;;;8.77;5.47;;;4.20;99.90;;;;;;5015322;28;20733;-62
2021/12/05 09:22:28;;;;;;;6.10;5.50;;;4.60;99.90;;;;;;5014419;28;20213;-64
2021/12/05 10:09:01;;;;;;;5.37;4.90;;;5.50;99.90;;;;;;5014097;28;20593;-63
2021/12/05 10:11:38;;;;;;;5.23;4.90;;;5.50;99.90;;;;;;5013866;28;20195;-63
2021/12/05 10:37:26;;;;;;;5.73;5.13;;;5.30;99.90;;;;;;4937757;29;20261;-63
2021/12/05 10:40:07;;;;;;;5.57;4.97;;;5.20;99.90;;;;;;4921759;29;20555;-62
2021/12/05 10:42:44;;;;;;;5.30;5.00;;;5.20;99.90;;;;;;4982953;28;20266;-62
2021/12/05 10:45:38;;;;;;;7.17;5.03;;;5.20;99.90;;;;;;4999638;28;20210;-62
2021/12/05 10:48:07;;;;;;;5.27;4.97;;;5.20;99.90;;;;;;5017189;28;20167;-62
2021/12/05 10:50:36;;;;;;;5.33;4.90;;;5.20;99.90;;;;;;5017088;28;20229;-63
2021/12/05 10:53:20;;;;;;;5.10;4.80;;;5.10;99.90;;;;;;5018029;28;20724;-63
2021/12/05 10:56:12;;;;;;;5.43;4.90;;;5.20;99.90;;;;;;5016998;28;20651;-63
2021/12/05 10:58:47;;;;;;;6.87;5.10;;;5.10;99.90;;;;;;5017234;28;20214;-62
2021/12/05 11:01:37;;;;;;;8.40;5.93;;;5.20;99.90;;;;;;4999240;28;20182;-63
2021/12/05 11:04:13;;;;;;;5.00;4.70;;;5.10;99.90;;;;;;5016755;28;20187;-63
2021/12/05 11:07:00;;;;;;;5.33;5.00;;;5.20;99.90;;;;;;5016876;28;20156;-63
2021/12/05 11:09:30;;;;;;;5.50;5.10;;;5.20;99.90;;;;;;5017034;28;20207;-63
2021/12/05 11:12:03;;;;;;;5.87;4.70;;;5.20;99.90;;;;;;4998981;28;20543;-63
2021/12/05 11:14:38;;;;;;;4.93;4.60;;;5.20;99.90;;;;;;4999006;28;20175;-63
2021/12/05 11:17:26;;;;;;;5.97;5.37;;;5.20;99.90;;;;;;5016885;28;20213;-63
2021/12/05 11:20:09;;;;;;;5.63;5.13;;;5.20;99.90;;;;;;5016009;28;20188;-63
2021/12/05 11:22:43;;;;;;;5.90;4.80;;;5.20;99.90;;;;;;5016478;28;20238;-63
2021/12/05 11:25:13;;;;;;;4.93;4.63;;;5.20;99.90;;;;;;5017123;28;20517;-63
2021/12/05 11:27:45;;;;;;;7.10;5.07;;;5.30;99.90;;;;;;5016798;28;20194;-63
2021/12/05 11:30:18;;;;;;;5.00;4.70;;;5.30;99.90;;;;;;5016415;28;20690;-63
2021/12/05 11:32:59;;;;;;;5.33;4.70;;;5.30;99.90;;;;;;5016638;28;20202;-63
2021/12/05 11:35:48;;;;;;;5.37;4.87;;;5.30;99.90;;;;;;5016542;28;20167;-63
2021/12/05 11:38:13;;;;;;;5.17;4.77;;;5.30;99.90;;;;;;5016453;28;20199;-63
2021/12/05 11:40:48;;;;;;;4.90;4.53;;;5.30;99.90;;;;;;5016260;28;20172;-63
2021/12/05 11:43:20;;;;;;;5.60;4.70;;;5.40;99.90;;;;;;4998271;28;20282;-63
2021/12/05 11:46:00;;;;;;;4.93;4.60;;;5.40;99.90;;;;;;4998862;28;20537;-63
2021/12/05 11:48:41;;;;;;;5.00;4.60;;;5.40;99.90;;;;;;5016123;28;20160;-63
2021/12/05 11:51:25;;;;;;;4.70;4.40;;;5.40;99.90;;;;;;5015994;28;20184;-63
2021/12/05 11:54:14;;;;;;;5.03;4.67;;;5.40;99.90;;;;;;5016034;28;20222;-63
2021/12/05 11:56:45;;;;;;;5.37;4.87;;;5.40;99.90;;;;;;5015936;28;20540;-63
2021/12/05 11:59:35;;;;;;;5.27;4.77;;;5.40;99.90;;;;;;4998243;28;20309;-63
2021/12/05 12:02:33;;;;;;;5.20;4.70;;;5.40;99.90;;;;;;4998191;28;20207;-63
2021/12/05 12:05:02;;;;;;;4.97;4.67;;;5.40;99.90;;;;;;5015262;28;20196;-63
2021/12/05 12:07:39;;;;;;;5.23;4.60;;;5.50;99.90;;;;;;5015717;28;20650;-67
2021/12/05 12:10:27;;;;;;;5.07;4.67;;;5.50;99.90;;;;;;5015979;28;20186;-66
2021/12/05 12:13:05;;;;;;;4.80;4.43;;;5.60;99.90;;;;;;5015590;28;20196;-66
2021/12/05 12:15:31;;;;;;;5.27;4.97;;;5.70;99.90;;;;;;5015841;28;20199;-61
2021/12/05 12:18:13;;;;;;;4.90;4.50;;;5.90;99.90;;;;;;4997893;28;20666;-61
2021/12/05 12:20:41;;;;;;;4.83;4.40;;;6.00;99.90;;;;;;5015821;28;20160;-62
2021/12/05 12:23:15;;;;;;;5.07;4.63;;;6.10;99.90;;;;;;5016221;28;20590;-62
2021/12/05 12:25:50;;;;;;;4.63;4.33;;;6.20;99.90;;;;;;5015682;28;20156;-62
2021/12/05 12:28:23;;;;;;;4.97;4.67;;;6.20;99.90;;;;;;5015676;28;20583;-63
2021/12/05 12:31:00;;;;;;;4.70;4.30;;;6.30;99.90;;;;;;5015329;28;20160;-63
2021/12/05 12:33:36;;;;;;;4.60;4.30;;;6.40;99.90;;;;;;5015497;28;20173;-63
2021/12/05 12:36:04;;;;;;;4.80;4.50;;;6.40;99.90;;;;;;4997606;28;20172;-62
2021/12/05 12:38:30;;;;;;;4.93;4.53;;;6.40;99.90;;;;;;5015196;28;20269;-64
2021/12/05 12:41:02;;;;;;;4.50;4.20;;;6.50;99.90;;;;;;5015190;28;20184;-63
2021/12/05 12:44:06;;;;;;;4.47;4.17;;;6.50;99.90;;;;;;4997459;28;20183;-63
2021/12/05 12:46:41;;;;;;;4.40;4.10;;;6.40;99.90;;;;;;5015380;28;20180;-63
2021/12/05 12:49:17;;;;;;;5.20;4.70;;;6.40;99.90;;;;;;4997118;28;20184;-63
2021/12/05 12:51:45;;;;;;;4.60;4.30;;;6.30;99.90;;;;;;4997228;28;20203;-64
2021/12/05 12:54:27;;;;;;;4.60;4.20;;;6.20;99.90;;;;;;5014078;28;20176;-63
2021/12/05 12:57:03;;;;;;;4.90;4.60;;;6.20;99.90;;;;;;4997190;28;20209;-63
2021/12/05 12:59:34;;;;;;;6.03;5.00;;;6.20;99.90;;;;;;4997073;28;20167;-66
2021/12/05 13:05:40;;;;;;;5.30;4.90;;;6.20;99.90;;;;;;5014638;28;20179;-66
2021/12/05 13:10:40;;;;;;;4.50;4.20;;;6.20;99.90;;;;;;5014599;28;20183;-63
2021/12/05 13:13:25;;;;;;;4.73;4.40;;;6.30;99.90;;;;;;4996996;28;20619;-62
2021/12/05 13:15:57;;;;;;;6.07;5.23;;;6.30;99.90;;;;;;4996877;28;20646;-63
2021/12/05 13:18:29;;;;;;;5.03;4.47;;;6.30;99.90;;;;;;4996750;28;20242;-62
2021/12/05 13:21:26;;;;;;;4.50;4.30;;;6.40;99.90;;;;;;5014354;28;20255;-63
2021/12/05 13:23:55;;;;;;;5.07;4.47;;;6.40;99.90;;;;;;5014599;28;20171;-63
2021/12/05 13:26:25;;;;;;;5.00;4.50;;;6.40;99.90;;;;;;5014311;28;20840;-63
2021/12/05 13:29:10;;;;;;;4.83;4.50;;;6.40;99.90;;;;;;4996678;28;20211;-63
2021/12/05 13:31:42;;;;;;;4.80;4.50;;;6.40;99.90;;;;;;4996545;28;20198;-63
2021/12/05 13:34:25;;;;;;;4.80;4.50;;;6.40;99.90;;;;;;5014471;28;20160;-63
2021/12/05 13:36:51;;;;;;;4.20;3.90;;;6.20;99.90;;;;;;4996465;28;20200;-63
2021/12/05 13:39:47;;;;;;;4.77;4.47;;;6.20;99.90;;;;;;4996468;28;20246;-63
2021/12/05 13:42:27;;;;;;;4.87;4.47;;;6.10;99.90;;;;;;4975329;28;20203;-63
2021/12/05 13:45:15;;;;;;;6.33;5.23;;;6.10;99.90;;;;;;5014526;28;20218;-63
2021/12/05 13:47:47;;;;;;;8.37;6.80;;;6.00;99.90;;;;;;5014281;28;20183;-63
2021/12/05 13:50:22;;;;;;;10.17;6.63;;;5.90;99.90;;;;;;4996373;28;20693;-62
2021/12/05 13:53:19;;;;;;;11.40;7.40;;;5.90;99.90;;;;;;4996167;28;20195;-63
2021/12/05 13:55:53;;;;;;;7.87;6.07;;;5.80;99.90;;;;;;5014133;28;20214;-63
2021/12/05 13:58:34;;;;;;;4.90;4.53;;;5.80;99.90;;;;;;5013766;28;20187;-63
2021/12/05 14:01:10;;;;;;;4.90;4.50;;;5.80;99.90;;;;;;5013675;28;20168;-63
2021/12/05 14:03:53;;;;;;;5.70;4.50;;;5.70;99.90;;;;;;4995964;28;20198;-63
2021/12/05 14:06:53;;;;;;;4.60;4.40;;;5.70;99.90;;;;;;5013703;28;20159;-63
2021/12/05 14:09:36;;;;;;;4.53;4.23;;;5.60;99.90;;;;;;5013722;28;20162;-63
2021/12/05 14:12:13;;;;;;;4.63;4.23;;;5.60;99.90;;;;;;4995880;28;20267;-63
2021/12/05 14:15:08;;;;;;;4.83;4.50;;;5.60;99.90;;;;;;5013508;28;20646;-63
2021/12/05 14:17:45;;;;;;;5.13;4.73;;;5.60;99.90;;;;;;5014129;28;20345;-63
2021/12/05 14:20:15;;;;;;;6.10;4.70;;;5.60;99.90;;;;;;5013479;28;20176;-69
2021/12/05 14:22:44;;;;;;;5.00;4.70;;;5.60;99.90;;;;;;5013819;28;20183;-68
2021/12/05 14:25:22;;;;;;;5.03;4.73;;;5.60;99.90;;;;;;4996226;28;20187;-66
2021/12/05 14:28:02;;;;;;;4.47;4.27;;;5.60;99.90;;;;;;5013745;28;20163;-64
2021/12/05 14:30:32;;;;;;;4.73;4.43;;;5.70;99.90;;;;;;5013777;28;20271;-65
2021/12/05 14:32:59;;;;;;;4.53;4.13;;;5.70;99.90;;;;;;5013343;28;20195;-64
2021/12/05 14:35:35;;;;;;;4.80;4.50;;;5.60;99.90;;;;;;4995990;28;20618;-64
2021/12/05 14:38:02;;;;;;;4.70;4.30;;;5.60;99.90;;;;;;5013669;28;20553;-66
2021/12/05 14:40:31;;;;;;;4.13;3.90;;;5.60;99.90;;;;;;5013867;28;20159;-65
2021/12/05 14:43:03;;;;;;;4.73;4.33;;;5.60;99.90;;;;;;5013218;28;20196;-65
2021/12/05 14:45:32;;;;;;;22.53;14.37;;;5.60;99.90;;;;;;5013630;28;20187;-66
2021/12/05 14:48:03;;;;;;;11.03;7.70;;;5.60;99.90;;;;;;5013297;28;20519;-65
2021/12/05 14:50:34;;;;;;;6.03;5.43;;;5.60;99.90;;;;;;4995637;28;20175;-65
2021/12/05 14:53:03;;;;;;;7.60;5.50;;;5.50;99.90;;;;;;5013483;28;20674;-65
2021/12/05 14:55:31;;;;;;;5.67;5.20;;;5.50;99.90;;;;;;4995476;28;20189;-66
2021/12/05 14:58:07;;;;;;;5.83;5.23;;;5.50;99.90;;;;;;5013163;28;20200;-65
2021/12/05 15:00:39;;;;;;;5.70;5.30;;;5.50;99.90;;;;;;5013203;28;20155;-65
2021/12/05 15:03:14;;;;;;;6.13;5.63;;;5.50;99.90;;;;;;5013180;28;20747;-65
2021/12/05 15:05:43;;;;;;;5.80;5.40;;;5.50;99.90;;;;;;5013101;28;20156;-65
2021/12/05 15:08:13;;;;;;;5.67;5.27;;;5.50;99.90;;;;;;5013625;28;20638;-66
2021/12/05 15:10:43;;;;;;;6.63;5.40;;;5.50;99.90;;;;;;5013316;28;20175;-66
2021/12/05 15:13:10;;;;;;;5.40;5.00;;;5.50;99.90;;;;;;4995405;28;20195;-65
2021/12/05 15:15:36;;;;;;;5.00;4.70;;;5.50;99.90;;;;;;5013004;28;20211;-65
2021/12/05 15:18:03;;;;;;;4.70;4.40;;;5.40;99.90;;;;;;4997626;28;20619;-65
2021/12/05 15:20:32;;;;;;;5.43;5.03;;;5.40;99.90;;;;;;5016845;28;20631;-65
2021/12/05 15:23:04;;;;;;;6.10;5.40;;;5.40;99.90;;;;;;5016516;28;20250;-65
2021/12/05 15:25:32;;;;;;;5.20;4.80;;;5.40;99.90;;;;;;5016517;28;20168;-65
2021/12/05 15:27:58;;;;;;;8.33;6.83;;;5.40;99.90;;;;;;5016803;28;20175;-65
2021/12/05 15:30:28;;;;;;;6.17;5.60;;;5.40;99.90;;;;;;5016454;28;20179;-65
2021/12/05 15:33:02;;;;;;;8.50;5.60;;;5.40;99.90;;;;;;5016766;28;20191;-66
2021/12/05 15:35:29;;;;;;;5.80;5.30;;;5.40;99.90;;;;;;5016621;28;20164;-65
2021/12/05 15:37:58;;;;;;;7.10;6.13;;;5.30;99.90;;;;;;5016213;28;20254;-65
2021/12/05 15:40:26;;;;;;;6.40;5.80;;;5.30;99.90;;;;;;5016224;28;20175;-65
2021/12/05 15:43:01;;;;;;;8.10;6.17;;;5.30;99.90;;;;;;4998468;28;20258;-65
2021/12/05 15:45:27;;;;;;;6.60;6.07;;;5.30;99.90;;;;;;4998536;28;20160;-65
2021/12/05 15:47:53;;;;;;;7.77;6.20;;;5.20;99.90;;;;;;5016379;28;20191;-66
2021/12/05 15:50:25;;;;;;;9.33;6.63;;;5.20;99.90;;;;;;4998503;28;20226;-65
2021/12/05 15:52:57;;;;;;;7.20;6.60;;;5.20;99.90;;;;;;5016192;28;20210;-65
2021/12/05 15:55:38;;;;;;;6.90;6.30;;;5.10;99.90;;;;;;5016282;28;20243;-65
2021/12/05 15:58:12;;;;;;;7.13;6.10;;;5.10;99.90;;;;;;5016144;28;20661;-65
2021/12/05 16:00:45;;;;;;;6.73;6.20;;;5.10;99.90;;;;;;5015923;28;20243;-65
2021/12/05 16:03:20;;;;;;;7.60;6.93;;;5.10;99.90;;;;;;5016080;28;20207;-65
2021/12/05 16:05:52;;;;;;;12.07;7.50;;;5.10;99.90;;;;;;5015816;28;20238;-65
2021/12/05 16:08:18;;;;;;;10.23;9.20;;;5.10;99.90;;;;;;5016122;28;20585;-65
2021/12/05 16:10:50;;;;;;;9.70;8.70;;;5.10;99.90;;;;;;5016237;28;20190;-66
2021/12/05 16:13:21;;;;;;;9.33;8.43;;;5.00;99.90;;;;;;5015638;28;20200;-66
2021/12/05 16:15:53;;;;;;;8.10;7.13;;;5.00;99.90;;;;;;4998057;28;20195;-66
2021/12/05 16:18:29;;;;;;;9.50;8.50;;;5.00;99.90;;;;;;5015486;28;20203;-65
2021/12/05 16:21:01;;;;;;;7.60;6.90;;;5.00;99.90;;;;;;5015814;28;20175;-66
2021/12/05 16:23:29;;;;;;;10.13;7.13;;;4.90;99.90;;;;;;4998086;28;20184;-66
2021/12/05 16:26:04;;;;;;;11.10;6.97;;;4.90;99.90;;;;;;5015745;28;20178;-65
2021/12/05 16:28:49;;;;;;;10.83;7.13;;;4.90;99.90;;;;;;5014880;28;20159;-64
2021/12/05 16:31:21;;;;;;;10.63;7.57;;;4.90;99.90;;;;;;5015965;28;20180;-65
2021/12/05 16:33:54;;;;;;;8.47;6.93;;;4.80;99.90;;;;;;5015410;28;20187;-65
2021/12/05 16:36:21;;;;;;;8.40;7.00;;;4.80;99.90;;;;;;4997880;28;20180;-65
2021/12/05 16:38:52;;;;;;;8.83;6.47;;;4.80;99.90;;;;;;4997641;28;20183;-64
2021/12/05 16:41:29;;;;;;;7.63;6.23;;;4.70;99.90;;;;;;5015464;28;20176;-64
2021/12/05 16:43:55;;;;;;;7.37;5.97;;;4.70;99.90;;;;;;5015158;28;20183;-64
2021/12/05 16:46:31;;;;;;;6.90;6.23;;;4.70;99.90;;;;;;4997590;28;20179;-64
2021/12/05 16:49:03;;;;;;;8.10;6.70;;;4.70;99.90;;;;;;4997516;28;20179;-64
2021/12/05 16:51:55;;;;;;;9.07;8.17;;;4.70;99.90;;;;;;5015198;28;20192;-64
2021/12/05 16:54:25;;;;;;;9.33;8.27;;;4.60;99.90;;;;;;5011201;28;20192;-63
2021/12/05 16:56:55;;;;;;;9.27;7.80;;;4.60;99.90;;;;;;5015149;28;20196;-64
2021/12/05 16:59:32;;;;;;;9.30;6.60;;;4.60;99.90;;;;;;5015084;28;20176;-64
2021/12/05 17:02:29;;;;;;;12.67;7.70;;;4.60;99.90;;;;;;5014855;28;20199;-64
2021/12/05 17:04:59;;;;;;;9.20;7.20;;;4.50;99.90;;;;;;5004064;28;20578;-64
2021/12/05 17:07:42;;;;;;;10.23;7.73;;;4.50;99.90;;;;;;5014846;28;20213;-64
2021/12/05 17:10:19;;;;;;;7.33;6.67;;;4.50;99.90;;;;;;5014611;28;20156;-63
2021/12/05 17:12:45;;;;;;;8.67;7.77;;;4.50;99.90;;;;;;5014438;28;20199;-64
2021/12/05 17:15:24;;;;;;;11.60;8.80;;;4.50;99.90;;;;;;5014379;28;20180;-64
2021/12/05 17:17:53;;;;;;;12.73;8.80;;;4.40;99.90;;;;;;4996791;28;20660;-64
2021/12/05 17:20:31;;;;;;;11.13;8.87;;;4.30;99.90;;;;;;5014388;28;20183;-63
2021/12/05 17:22:57;;;;;;;11.80;10.23;;;4.30;99.90;;;;;;5014596;28;20203;-63
2021/12/05 17:25:30;;;;;;;9.30;8.13;;;4.30;99.90;;;;;;5014624;28;20175;-66
2021/12/05 17:27:57;;;;;;;12.47;8.70;;;4.30;99.90;;;;;;4996665;28;20172;-66
2021/12/05 17:30:23;;;;;;;9.50;7.90;;;4.30;99.90;;;;;;5014980;28;20187;-63
2021/12/05 17:32:49;;;;;;;8.50;7.27;;;4.30;99.90;;;;;;5014168;28;20207;-64
2021/12/05 17:35:15;;;;;;;10.70;8.23;;;4.30;99.90;;;;;;5014159;28;20168;-63
2021/12/05 17:37:45;;;;;;;13.10;8.70;;;4.20;99.90;;;;;;5014248;28;20200;-63
2021/12/05 17:40:12;;;;;;;9.17;7.97;;;4.20;99.90;;;;;;5014030;28;20629;-63
2021/12/05 17:42:39;;;;;;;12.07;7.90;;;4.20;99.90;;;;;;5013955;28;20196;-63
2021/12/05 17:45:07;;;;;;;9.60;8.43;;;4.20;99.90;;;;;;4996346;28;20179;-63
2021/12/05 17:47:33;;;;;;;10.23;8.47;;;4.20;99.90;;;;;;5013818;28;20634;-63
2021/12/05 17:50:01;;;;;;;9.40;8.40;;;4.20;99.90;;;;;;5014144;28;20242;-63
2021/12/05 17:52:29;;;;;;;12.73;10.83;;;4.20;99.90;;;;;;5013843;28;20198;-63
2021/12/05 17:55:08;;;;;;;17.03;11.93;;;4.20;99.90;;;;;;4996138;28;20586;-63
2021/12/05 17:57:41;;;;;;;14.80;12.10;;;4.10;99.90;;;;;;5013690;28;20239;-64
2021/12/05 18:02:56;;;;;;;25.00;15.40;;;4.10;99.90;;;;;;5013974;28;20216;-66
2021/12/05 18:05:37;;;;;;;26.43;15.40;;;4.20;99.90;;;;;;5013900;28;20180;-65
2021/12/05 18:08:10;;;;;;;28.13;19.40;;;4.10;99.90;;;;;;5013689;28;20222;-66
2021/12/05 18:10:39;;;;;;;20.70;14.47;;;4.10;99.90;;;;;;5013848;28;20172;-65
2021/12/05 18:13:10;;;;;;;15.80;12.30;;;4.10;99.90;;;;;;5013452;28;20204;-66
2021/12/05 18:15:37;;;;;;;14.23;12.13;;;4.10;99.90;;;;;;5013929;28;20526;-65
2021/12/05 18:18:05;;;;;;;19.30;12.73;;;4.10;99.90;;;;;;4995843;28;20294;-66
2021/12/05 18:20:33;;;;;;;13.60;12.13;;;4.10;99.90;;;;;;5013723;28;20267;-65
2021/12/05 18:23:05;;;;;;;14.67;11.57;;;4.10;99.90;;;;;;5013768;28;20291;-66
2021/12/05 18:25:32;;;;;;;15.80;13.40;;;4.10;99.90;;;;;;5013863;28;20160;-66
2021/12/05 18:27:58;;;;;;;15.80;11.53;;;4.10;99.90;;;;;;5013619;28;20184;-66
2021/12/05 18:30:26;;;;;;;13.03;11.63;;;4.10;99.90;;;;;;5013401;28;20222;-66
2021/12/05 18:32:56;;;;;;;15.43;10.90;;;4.10;99.90;;;;;;5013215;28;20551;-66
2021/12/05 18:35:25;;;;;;;12.90;11.20;;;4.10;99.90;;;;;;5013823;28;20164;-66
2021/12/05 18:37:54;;;;;;;13.53;10.63;;;4.10;99.90;;;;;;4995877;28;20208;-66
2021/12/05 18:40:19;;;;;;;17.07;11.73;;;4.10;99.90;;;;;;5013410;28;20528;-66
2021/12/05 18:42:45;;;;;;;13.33;11.23;;;4.10;99.90;;;;;;5013247;28;20199;-67
2021/12/05 18:45:15;;;;;;;14.87;11.23;;;4.10;99.90;;;;;;5013705;28;20559;-67
2021/12/05 18:47:41;;;;;;;14.73;12.00;;;4.10;99.90;;;;;;4995901;28;20176;-63
2021/12/05 18:50:08;;;;;;;14.27;11.87;;;4.10;99.90;;;;;;5013601;28;20566;-63
2021/12/05 18:52:36;;;;;;;18.87;12.83;;;4.10;99.90;;;;;;4997370;28;20206;-63
2021/12/05 18:55:07;;;;;;;14.63;12.43;;;4.10;99.90;;;;;;5017357;28;20195;-63
2021/12/05 18:57:33;;;;;;;15.27;12.40;;;4.10;99.90;;;;;;5017347;28;20222;-62
2021/12/05 19:00:05;;;;;;;16.20;11.50;;;4.20;99.90;;;;;;5017091;28;20176;-62
2021/12/05 19:05:29;;;;;;;11.90;9.63;;;4.20;99.90;;;;;;5018533;28;20246;-62